Time;durP1;ratioP1;P1;durP2;ratioP2;P2;SDS_P1;SDS_P2;PMS_P1;PMS_P2;Temp;Humidity;BMP_temperature;BMP_pressure;BME280_temperature;BME280_humidity;BME280_pressure;Samples;Min_cycle;Max_cycle;Signal;HPM_P1;HPM_P2
2023/07/31 00:01:40;;;;;;;1.20;1.17;;;;;;;26.28;44.46;98848.81;5013198;28;20256;-62
2023/07/31 00:04:06;;;;;;;1.40;1.30;;;;;;;26.30;44.71;98849.31;5012379;28;20661;-63
2023/07/31 00:06:33;;;;;;;2.50;1.63;;;;;;;26.34;44.11;98847.56;5012687;28;20494;-63
2023/07/31 00:09:00;;;;;;;3.73;1.50;;;;;;;26.44;44.12;98856.25;5013467;28;20256;-63
2023/07/31 00:11:28;;;;;;;1.93;1.20;;;;;;;26.48;44.21;98850.97;5013224;28;20198;-63
2023/07/31 00:13:54;;;;;;;1.60;1.50;;;;;;;26.50;43.97;98846.81;5012488;28;20190;-65
2023/07/31 00:16:21;;;;;;;1.53;1.40;;;;;;;26.46;44.01;98845.06;5012817;28;20705;-64
2023/07/31 00:18:48;;;;;;;1.20;1.20;;;;;;;26.45;44.09;98854.34;5013229;28;20260;-63
2023/07/31 00:21:15;;;;;;;2.40;1.70;;;;;;;26.44;44.06;98860.91;5012269;28;20193;-63
2023/07/31 00:23:41;;;;;;;14.47;2.70;;;;;;;26.50;44.81;98865.09;5012008;28;20213;-63
2023/07/31 00:26:08;;;;;;;4.63;1.77;;;;;;;26.38;44.56;98870.34;5012793;28;20198;-63
2023/07/31 00:28:36;;;;;;;2.20;1.60;;;;;;;26.41;44.81;98872.44;5013192;28;20194;-63
2023/07/31 00:31:03;;;;;;;3.07;1.33;;;;;;;26.47;44.46;98876.63;5012778;28;20194;-65
2023/07/31 00:33:33;;;;;;;1.60;1.50;;;;;;;26.50;44.29;98862.38;5012262;28;20210;-63
2023/07/31 00:35:59;;;;;;;1.40;1.30;;;;;;;26.51;44.51;98863.97;5012704;28;20225;-63
2023/07/31 00:38:26;;;;;;;3.63;1.90;;;;;;;26.51;44.06;98858.53;5012853;28;20252;-63
2023/07/31 00:40:53;;;;;;;1.10;1.10;;;;;;;26.55;44.43;98867.69;5012030;28;20194;-64
2023/07/31 00:43:19;;;;;;;1.50;1.20;;;;;;;26.58;43.96;98862.41;5012857;28;20280;-64
2023/07/31 00:45:47;;;;;;;3.33;1.40;;;;;;;26.40;44.65;98868.09;5012480;28;20690;-63
2023/07/31 00:48:14;;;;;;;1.30;1.20;;;;;;;26.47;45.33;98863.00;5012465;28;20252;-63
2023/07/31 00:50:41;;;;;;;1.23;1.23;;;;;;;26.53;44.79;98867.16;5011968;28;20622;-62
2023/07/31 00:53:07;;;;;;;2.53;1.40;;;;;;;26.60;44.79;98873.00;5012405;28;20201;-63
2023/07/31 00:55:34;;;;;;;5.57;1.60;;;;;;;26.63;44.86;98872.38;5012351;28;20728;-64
2023/07/31 00:58:01;;;;;;;5.10;1.43;;;;;;;26.65;45.35;98875.59;5012671;28;20190;-62
2023/07/31 01:00:28;;;;;;;1.90;1.53;;;;;;;26.67;45.13;98870.63;5012169;28;20194;-62
2023/07/31 01:02:56;;;;;;;2.97;1.80;;;;;;;26.71;44.51;98874.34;5012470;28;20198;-63
2023/07/31 01:05:28;;;;;;;1.90;1.50;;;;;;;26.55;45.41;98857.59;5012305;28;20194;-64
2023/07/31 01:08:03;;;;;;;4.40;1.90;;;;;;;26.67;45.39;98876.09;5012432;28;20240;-64
2023/07/31 01:10:38;;;;;;;3.10;1.97;;;;;;;26.55;45.11;98876.66;5011807;28;20624;-63
2023/07/31 01:13:04;;;;;;;3.93;1.97;;;;;;;26.25;46.34;98882.13;5012540;28;20195;-63
2023/07/31 01:15:31;;;;;;;2.10;2.00;;;;;;;26.17;46.40;98877.44;5012670;28;20271;-63
2023/07/31 01:17:59;;;;;;;3.23;2.37;;;;;;;26.18;46.91;98877.13;5011314;28;20252;-63
2023/07/31 01:20:28;;;;;;;2.10;2.00;;;;;;;26.18;47.05;98881.75;5012446;28;20202;-63
2023/07/31 01:23:36;;;;;;;4.30;2.93;;;;;;;26.11;46.81;98892.28;5012320;28;20194;-65
2023/07/31 01:26:12;;;;;;;3.23;3.00;;;;;;;25.76;48.04;98885.78;5012188;28;20700;-63
2023/07/31 01:28:47;;;;;;;3.63;2.80;;;;;;;25.61;48.36;98883.44;5011465;28;20615;-64
2023/07/31 01:31:20;;;;;;;3.27;3.07;;;;;;;25.52;48.08;98881.75;4992485;28;20183;-63
2023/07/31 01:33:49;;;;;;;4.20;2.67;;;;;;;25.28;49.20;98883.94;4994119;28;20187;-63
2023/07/31 01:36:16;;;;;;;4.27;2.80;;;;;;;25.08;49.93;98891.38;4996659;28;20222;-64
2023/07/31 01:38:42;;;;;;;2.90;2.80;;;;;;;25.03;49.95;98896.13;5012242;28;20252;-63
2023/07/31 01:41:10;;;;;;;4.67;2.80;;;;;;;24.89;50.56;98890.72;5016227;28;20283;-63
2023/07/31 01:43:37;;;;;;;3.70;3.07;;;;;;;24.84;50.79;98885.38;5016184;28;20275;-62
2023/07/31 01:46:04;;;;;;;5.40;3.55;;;;;;;24.84;50.47;98885.38;5015880;28;20450;-62
2023/07/31 01:48:35;;;;;;;3.60;3.20;;;;;;;24.73;51.36;98878.56;5015015;28;20249;-62
2023/07/31 01:51:02;;;;;;;4.10;2.97;;;;;;;24.68;51.85;98875.13;5015816;28;20676;-63
2023/07/31 01:53:29;;;;;;;5.93;3.40;;;;;;;24.84;51.66;98874.50;5015871;28;20512;-62
2023/07/31 01:55:55;;;;;;;6.67;3.30;;;;;;;24.93;51.62;98877.31;5016012;28;20233;-63
2023/07/31 01:58:23;;;;;;;8.33;3.73;;;;;;;25.02;50.90;98870.06;5014871;28;20571;-63
2023/07/31 02:00:50;;;;;;;8.77;4.67;;;;;;;25.08;51.07;98868.84;5015828;28;20245;-63
2023/07/31 02:03:17;;;;;;;3.97;3.67;;;;;;;25.14;50.92;98875.78;5015940;28;20259;-63
2023/07/31 02:05:45;;;;;;;10.87;5.20;;;;;;;25.18;50.47;98884.13;5015477;28;20228;-63
2023/07/31 02:08:12;;;;;;;14.83;6.40;;;;;;;25.02;50.81;98885.56;5014960;28;20268;-63
2023/07/31 02:10:39;;;;;;;8.33;5.57;;;;;;;24.98;50.36;98884.56;5015812;28;20256;-63
2023/07/31 02:13:06;;;;;;;7.23;6.10;;;;;;;24.76;50.53;98877.97;5015586;28;20233;-64
2023/07/31 02:15:34;;;;;;;7.33;5.53;;;;;;;24.71;51.14;98886.19;5015914;28;20594;-63
2023/07/31 02:18:00;;;;;;;6.07;4.27;;;;;;;24.64;51.23;98879.56;5014814;28;20272;-63
2023/07/31 02:20:27;;;;;;;5.60;4.13;;;;;;;24.50;51.45;98870.59;5015502;28;20260;-63
2023/07/31 02:22:54;;;;;;;3.67;3.30;;;;;;;24.48;51.50;98865.44;5015489;28;20256;-63
2023/07/31 02:25:20;;;;;;;3.00;2.80;;;;;;;24.33;52.52;98868.44;5015162;28;20223;-64
2023/07/31 02:27:47;;;;;;;5.53;2.73;;;;;;;24.39;52.67;98872.66;5014564;28;20236;-63
2023/07/31 02:30:14;;;;;;;3.97;2.53;;;;;;;24.37;53.78;98857.78;5015533;28;20245;-61
2023/07/31 02:32:42;;;;;;;3.30;2.70;;;;;;;24.32;55.13;98855.97;5015267;28;20194;-61
2023/07/31 02:35:09;;;;;;;4.43;2.97;;;;;;;24.44;55.54;98850.88;5015288;28;20201;-61
2023/07/31 02:37:36;;;;;;;2.80;2.60;;;;;;;24.27;57.88;98847.13;5014381;28;20294;-61
2023/07/31 02:40:02;;;;;;;4.77;2.90;;;;;;;24.34;59.73;98845.59;5015184;28;20264;-62
2023/07/31 02:42:29;;;;;;;5.37;3.17;;;;;;;24.38;61.80;98848.53;5015108;28;20201;-61
2023/07/31 02:44:56;;;;;;;4.93;3.47;;;;;;;24.36;62.64;98851.56;5014181;28;20256;-62
2023/07/31 02:47:23;;;;;;;3.80;3.50;;;;;;;24.35;63.09;98846.44;5014212;28;20198;-62
2023/07/31 02:49:51;;;;;;;3.77;3.57;;;;;;;24.32;63.53;98850.56;5014932;28;20202;-62
2023/07/31 02:52:17;;;;;;;7.37;4.00;;;;;;;24.30;64.27;98835.66;5014621;28;20198;-61
2023/07/31 02:54:44;;;;;;;5.47;3.60;;;;;;;24.45;63.98;98844.31;5014861;28;20248;-61
2023/07/31 02:57:11;;;;;;;3.60;3.37;;;;;;;24.38;64.68;98843.91;5014444;28;20225;-62
2023/07/31 02:59:38;;;;;;;12.50;4.03;;;;;;;24.38;65.27;98846.63;5014341;28;20223;-62
2023/07/31 03:02:04;;;;;;;4.23;3.77;;;;;;;24.38;66.09;98843.91;5014257;28;20194;-62
2023/07/31 03:04:31;;;;;;;3.80;3.60;;;;;;;24.52;65.66;98843.91;5014906;28;20193;-62
2023/07/31 03:06:59;;;;;;;4.03;3.73;;;;;;;24.50;66.29;98846.94;5014243;28;20252;-61
2023/07/31 03:09:26;;;;;;;3.70;3.43;;;;;;;24.50;66.47;98852.34;5013889;28;20255;-62
2023/07/31 03:11:53;;;;;;;4.30;3.90;;;;;;;24.66;66.56;98845.56;5014799;28;20249;-62
2023/07/31 03:14:19;;;;;;;4.93;3.50;;;;;;;24.81;66.47;98839.00;5014461;28;20194;-62
2023/07/31 03:16:46;;;;;;;15.53;4.47;;;;;;;24.69;70.28;98855.00;5014413;28;20229;-61
2023/07/31 03:19:13;;;;;;;4.17;3.40;;;;;;;24.86;64.58;98845.13;5013288;28;20202;-62
2023/07/31 03:21:39;;;;;;;10.20;4.97;;;;;;;25.07;73.32;98852.84;5014041;28;20657;-61
2023/07/31 03:24:07;;;;;;;4.70;3.77;;;;;;;24.87;69.89;98856.81;5014119;28;20229;-63
2023/07/31 03:26:35;;;;;;;5.70;4.17;;;;;;;24.90;73.67;98861.63;5014039;28;20260;-61
2023/07/31 03:29:01;;;;;;;4.10;3.90;;;;;;;25.33;66.46;98875.66;5013336;28;20232;-62
2023/07/31 03:31:28;;;;;;;5.03;4.73;;;;;;;25.31;77.79;98867.03;5013429;28;20581;-62
2023/07/31 03:33:55;;;;;;;4.67;4.47;;;;;;;25.33;72.65;98876.47;5014224;28;20190;-63
2023/07/31 03:36:21;;;;;;;5.70;5.20;;;;;;;25.25;78.31;98873.63;5014016;28;20256;-61
2023/07/31 03:38:48;;;;;;;5.73;5.23;;;;;;;25.28;75.74;98882.03;5013410;28;20260;-61
2023/07/31 03:41:16;;;;;;;6.57;5.77;;;;;;;25.23;78.63;98886.75;5013659;28;20198;-62
2023/07/31 03:43:43;;;;;;;6.07;5.70;;;;;;;25.08;80.66;98896.81;5013128;28;20199;-62
2023/07/31 03:46:10;;;;;;;7.70;7.10;;;;;;;24.48;84.36;98908.91;5013719;28;20194;-62
2023/07/31 03:48:36;;;;;;;7.17;6.67;;;;;;;24.13;86.94;98912.25;5013646;28;20279;-62
2023/07/31 03:51:03;;;;;;;6.73;6.23;;;;;;;23.74;90.47;98925.34;5013487;28;20197;-62
2023/07/31 03:53:30;;;;;;;14.43;7.87;;;;;;;23.42;93.38;98930.69;5012986;28;20259;-62
2023/07/31 03:55:56;;;;;;;13.17;7.30;;;;;;;23.06;96.49;98923.28;5012923;28;20255;-62
2023/07/31 03:58:24;;;;;;;7.53;6.70;;;;;;;22.84;98.42;98918.44;5013609;28;20292;-63
2023/07/31 04:00:51;;;;;;;9.37;7.17;;;;;;;22.80;99.21;98914.69;5013278;28;20246;-62
2023/07/31 04:03:18;;;;;;;8.43;7.63;;;;;;;22.94;99.87;98922.91;5012500;28;20223;-62
2023/07/31 04:05:45;;;;;;;8.93;8.03;;;;;;;22.99;100.00;98929.06;5013446;28;20553;-63
2023/07/31 04:08:11;;;;;;;8.60;7.13;;;;;;;22.82;100.00;98927.94;5013254;28;20199;-62
2023/07/31 04:10:38;;;;;;;6.80;6.30;;;;;;;22.75;100.00;98927.47;5013118;28;20667;-62
2023/07/31 04:13:05;;;;;;;9.23;6.93;;;;;;;22.64;100.00;98928.69;5012609;28;20192;-62
2023/07/31 04:15:33;;;;;;;7.10;6.53;;;;;;;22.69;100.00;98925.91;5012940;28;20200;-61
2023/07/31 04:18:00;;;;;;;6.90;6.43;;;;;;;22.81;100.00;98926.31;5013008;28;20235;-62
2023/07/31 04:20:26;;;;;;;7.50;6.90;;;;;;;22.74;100.00;98934.78;5012311;28;20203;-62
2023/07/31 04:22:53;;;;;;;6.27;5.77;;;;;;;22.81;100.00;98943.38;5011717;28;20662;-61
2023/07/31 04:25:19;;;;;;;6.10;5.60;;;;;;;22.76;100.00;98937.22;5013058;28;20687;-61
2023/07/31 04:27:46;;;;;;;6.53;6.03;;;;;;;22.76;100.00;98943.44;5013200;28;20270;-61
2023/07/31 04:30:13;;;;;;;6.63;6.23;;;;;;;22.86;100.00;98934.38;5012760;28;20196;-62
2023/07/31 04:32:41;;;;;;;6.17;5.80;;;;;;;22.76;100.00;98940.75;5012493;28;20679;-63
2023/07/31 04:35:08;;;;;;;6.30;5.90;;;;;;;22.53;100.00;98946.13;5012880;28;20199;-62
2023/07/31 04:37:35;;;;;;;6.10;5.70;;;;;;;22.46;100.00;98946.44;5012925;28;20223;-61
2023/07/31 04:40:01;;;;;;;6.30;5.80;;;;;;;22.34;100.00;98943.28;5012544;28;20254;-61
2023/07/31 04:42:28;;;;;;;6.03;5.63;;;;;;;22.37;100.00;98948.13;5012130;28;20195;-61
2023/07/31 04:44:55;;;;;;;6.50;6.00;;;;;;;22.42;100.00;98950.78;5012814;28;20626;-63
2023/07/31 04:47:22;;;;;;;5.80;5.40;;;;;;;22.52;100.00;98949.91;5012542;28;20615;-61
2023/07/31 04:49:50;;;;;;;6.47;6.07;;;;;;;22.67;100.00;98942.44;5012417;28;20197;-60
2023/07/31 04:52:16;;;;;;;6.50;5.60;;;;;;;22.86;100.00;98951.44;5012725;28;20211;-60
2023/07/31 04:54:43;;;;;;;6.27;5.87;;;;;;;23.00;100.00;98944.25;5011988;28;20266;-61
2023/07/31 04:57:09;;;;;;;5.90;5.50;;;;;;;22.94;100.00;98937.25;5012528;28;20229;-61
2023/07/31 04:59:36;;;;;;;6.83;6.30;;;;;;;23.11;100.00;98943.00;5012674;28;20250;-60
2023/07/31 05:02:03;;;;;;;9.20;6.30;;;;;;;23.25;99.33;98943.94;5011829;28;20189;-61
2023/07/31 05:04:30;;;;;;;5.63;5.13;;;;;;;23.25;100.00;98943.94;5012383;28;20250;-61
2023/07/31 05:06:58;;;;;;;6.20;5.77;;;;;;;;;;5012288;28;20342;-62
2023/07/31 05:09:24;;;;;;;5.47;5.07;;;;;;;23.39;96.83;98938.59;5012111;28;20197;-61
2023/07/31 05:11:51;;;;;;;5.90;5.27;;;;;;;23.53;95.48;98944.91;5011948;28;20191;-61
2023/07/31 05:14:18;;;;;;;5.70;5.20;;;;;;;23.69;93.78;98943.59;5012095;28;20204;-61
2023/07/31 05:16:44;;;;;;;7.00;5.17;;;;;;;23.90;92.19;98945.72;5012315;28;20196;-61
2023/07/31 05:19:11;;;;;;;5.03;4.70;;;;;;;24.18;89.94;98941.22;5012098;28;20196;-62
2023/07/31 05:21:38;;;;;;;6.07;5.57;;;;;;;24.44;88.56;98951.34;5012153;28;20256;-62
2023/07/31 05:24:06;;;;;;;5.43;5.00;;;;;;;24.68;87.84;98957.44;5011168;28;20232;-61
2023/07/31 05:26:33;;;;;;;4.63;4.23;;;;;;;24.98;85.61;98947.09;5012305;28;20197;-62
2023/07/31 05:28:59;;;;;;;8.70;4.90;;;;;;;25.26;85.67;98946.75;5012222;28;20205;-62
2023/07/31 05:31:26;;;;;;;5.33;4.37;;;;;;;25.50;81.70;98962.84;5011061;28;20255;-62
2023/07/31 05:33:53;;;;;;;7.43;4.63;;;;;;;25.82;80.56;98965.38;5011964;28;20662;-62
2023/07/31 05:36:19;;;;;;;9.80;5.10;;;;;;;26.04;80.13;98962.72;5012074;28;20267;-61
2023/07/31 05:38:46;;;;;;;9.43;5.00;;;;;;;26.06;78.89;98963.19;5012280;28;20221;-61
2023/07/31 05:41:14;;;;;;;12.87;4.70;;;;;;;25.64;79.76;98967.13;5011680;28;20198;-66
2023/07/31 05:43:41;;;;;;;5.93;3.73;;;;;;;25.56;79.26;98978.75;5011101;28;20646;-64
2023/07/31 05:46:09;;;;;;;5.00;4.53;;;;;;;25.62;79.66;98971.28;5011566;28;20202;-65
2023/07/31 05:48:35;;;;;;;15.87;4.33;;;;;;;26.15;77.57;98980.41;5012189;28;20669;-64
2023/07/31 05:51:02;;;;;;;8.57;5.17;;;;;;;26.54;76.24;98983.22;5011653;28;20194;-67
2023/07/31 05:53:29;;;;;;;9.40;5.67;;;;;;;27.34;75.51;98986.50;5011680;28;20260;-68
2023/07/31 05:55:55;;;;;;;5.53;5.13;;;;;;;28.44;70.76;98988.53;5011566;28;20244;-65
2023/07/31 05:58:24;;;;;;;6.63;5.20;;;;;;;29.22;66.42;98993.41;5011597;28;20226;-66
2023/07/31 06:00:50;;;;;;;5.63;5.07;;;;;;;29.90;62.54;99001.22;5010779;28;20194;-65
2023/07/31 06:03:17;;;;;;;6.17;5.57;;;;;;;30.38;60.64;99001.47;5011119;28;20229;-64
2023/07/31 06:05:44;;;;;;;5.40;4.80;;;;;;;30.39;58.93;99005.84;5009271;28;20252;-67
2023/07/31 06:08:11;;;;;;;5.77;5.23;;;;;;;30.76;57.18;99004.81;5009250;28;20624;-69
2023/07/31 06:10:38;;;;;;;7.70;5.63;;;;;;;31.40;55.14;99005.81;5009163;28;20652;-64
2023/07/31 06:13:05;;;;;;;5.17;4.63;;;;;;;31.66;52.99;99006.25;5010154;28;20736;-65
2023/07/31 06:15:33;;;;;;;6.17;5.70;;;;;;;32.13;51.23;99009.25;5010008;28;20246;-65
2023/07/31 06:18:01;;;;;;;5.77;5.30;;;;;;;32.14;51.57;99000.63;5008946;28;20276;-65
2023/07/31 06:20:28;;;;;;;23.63;7.13;;;;;;;32.31;51.38;98997.66;5012463;28;20208;-63
2023/07/31 06:22:55;;;;;;;7.27;6.53;;;;;;;32.11;50.50;99006.84;5012149;28;20198;-67
2023/07/31 06:25:22;;;;;;;8.90;8.10;;;;;;;31.76;50.35;99005.78;5013070;28;20292;-63
2023/07/31 06:27:48;;;;;;;7.47;6.87;;;;;;;31.97;51.22;99011.94;5013924;28;20257;-61
2023/07/31 06:30:15;;;;;;;8.10;7.50;;;;;;;31.82;49.85;99007.19;5011747;28;20658;-61
2023/07/31 06:32:43;;;;;;;8.43;7.70;;;;;;;31.18;52.65;99009.00;5011436;28;20300;-63
2023/07/31 06:35:10;;;;;;;8.20;7.70;;;;;;;31.12;53.60;99004.06;5011792;28;20221;-67
2023/07/31 06:37:37;;;;;;;7.97;7.37;;;;;;;31.48;52.09;98999.41;5012135;28;20229;-62
2023/07/31 06:40:05;;;;;;;18.37;13.87;;;;;;;32.05;52.85;98997.25;5012877;28;20198;-62
2023/07/31 06:42:32;;;;;;;8.10;7.33;;;;;;;32.10;49.62;99004.44;5013733;28;20202;-61
2023/07/31 06:44:58;;;;;;;14.60;7.73;;;;;;;32.12;50.31;99000.19;5011552;28;20186;-62
2023/07/31 06:47:25;;;;;;;7.27;6.70;;;;;;;32.28;48.89;99001.06;5011730;28;20205;-62
2023/07/31 06:49:53;;;;;;;8.80;8.13;;;;;;;32.66;48.61;99008.81;5012051;28;20197;-61
2023/07/31 06:52:20;;;;;;;8.77;8.07;;;;;;;32.26;48.19;99008.84;5011853;28;20244;-61
2023/07/31 06:55:02;;;;;;;8.90;8.30;;;;;;;31.63;50.64;98995.13;5011435;28;20252;-65
2023/07/31 06:57:29;;;;;;;9.90;9.03;;;;;;;31.64;50.57;98991.28;5012832;28;20190;-62
2023/07/31 06:59:55;;;;;;;17.13;8.50;;;;;;;32.13;50.04;98996.28;5012934;28;20252;-62
2023/07/31 07:02:22;;;;;;;9.63;8.27;;;;;;;32.51;49.48;98999.34;5011519;28;20727;-63
2023/07/31 07:04:51;;;;;;;14.30;8.63;;;;;;;32.68;47.93;98987.25;5013095;28;20198;-63
2023/07/31 07:07:19;;;;;;;8.27;7.67;;;;;;;32.26;48.04;98999.81;5011931;28;20689;-62
2023/07/31 07:09:46;;;;;;;12.17;8.20;;;;;;;32.48;46.50;99002.03;5011577;28;20198;-62
2023/07/31 07:12:12;;;;;;;17.00;9.07;;;;;;;32.77;46.50;99012.63;5012884;28;20658;-61
2023/07/31 07:14:39;;;;;;;8.73;8.10;;;;;;;32.80;46.53;98988.00;5012670;28;20194;-62
2023/07/31 07:17:06;;;;;;;9.30;8.60;;;;;;;32.56;47.63;99010.13;5012171;28;20723;-63
2023/07/31 07:19:33;;;;;;;16.87;9.60;;;;;;;32.11;48.28;99004.13;5013195;28;20712;-62
2023/07/31 07:22:01;;;;;;;23.23;9.90;;;;;;;32.18;49.37;98998.00;5011928;28;20201;-62
2023/07/31 07:24:29;;;;;;;9.50;8.97;;;;;;;32.29;49.56;98991.69;5011364;28;20221;-62
2023/07/31 07:26:56;;;;;;;17.10;10.03;;;;;;;32.39;49.76;98993.94;5013114;28;20244;-63
2023/07/31 07:29:23;;;;;;;11.60;10.07;;;;;;;32.51;48.52;98988.34;5011982;28;20198;-63
2023/07/31 07:31:50;;;;;;;10.43;9.70;;;;;;;32.69;47.77;98997.91;5010564;28;20665;-65
2023/07/31 07:34:16;;;;;;;10.40;9.47;;;;;;;32.39;47.71;98996.69;5012991;28;20194;-62
2023/07/31 07:36:43;;;;;;;10.13;9.53;;;;;;;32.41;47.62;98999.88;5012517;28;20198;-60
2023/07/31 07:39:11;;;;;;;11.17;9.37;;;;;;;32.35;47.92;98995.81;5012223;28;20275;-65
2023/07/31 07:41:39;;;;;;;11.50;10.70;;;;;;;31.79;50.12;98990.56;5011472;28;20220;-62
2023/07/31 07:44:06;;;;;;;11.67;10.97;;;;;;;32.02;50.16;98992.47;5011124;28;20213;-62
2023/07/31 07:46:33;;;;;;;13.33;12.40;;;;;;;31.70;51.02;98985.19;5010156;28;20194;-63
2023/07/31 07:48:59;;;;;;;13.33;12.23;;;;;;;31.32;52.38;98982.00;5011424;28;20669;-61
2023/07/31 07:51:26;;;;;;;14.47;12.97;;;;;;;31.16;53.72;98981.09;5011558;28;20328;-61
2023/07/31 07:53:53;;;;;;;12.77;11.87;;;;;;;31.44;52.41;98976.50;5011323;28;20264;-61
2023/07/31 07:56:19;;;;;;;17.70;12.63;;;;;;;31.77;51.95;98985.41;5012824;28;20200;-61
2023/07/31 07:58:49;;;;;;;14.63;13.17;;;;;;;32.02;50.69;98984.22;5012105;28;20253;-62
2023/07/31 08:01:16;;;;;;;12.07;11.27;;;;;;;32.34;49.32;98988.69;5007347;28;20225;-60
2023/07/31 08:03:43;;;;;;;11.50;10.80;;;;;;;32.70;47.01;98987.69;5011540;28;20201;-61
2023/07/31 08:06:10;;;;;;;11.73;10.60;;;;;;;32.93;46.46;99000.53;5011112;28;20190;-63
2023/07/31 08:08:37;;;;;;;10.60;9.70;;;;;;;33.42;45.02;99000.16;5009846;28;20739;-62
2023/07/31 08:11:04;;;;;;;11.10;10.30;;;;;;;33.59;43.97;98991.53;5011643;28;20190;-61
2023/07/31 08:13:30;;;;;;;11.75;10.70;;;;;;;33.47;44.13;98986.91;5011435;28;20252;-61
2023/07/31 08:15:58;;;;;;;10.98;10.25;;;;;;;33.50;44.21;98996.41;5011363;28;20252;-61
2023/07/31 08:18:25;;;;;;;10.35;8.88;;;;;;;33.86;42.17;98990.56;5010669;28;20225;-61
2023/07/31 08:20:52;;;;;;;11.38;10.65;;;;;;;33.39;44.11;98984.38;5010519;28;20213;-63
2023/07/31 08:23:18;;;;;;;15.48;14.00;;;;;;;32.68;45.42;98970.75;5011222;28;20198;-63
2023/07/31 08:25:46;;;;;;;15.10;13.77;;;;;;;32.45;46.63;98973.28;5010388;28;20651;-62
2023/07/31 08:28:12;;;;;;;14.97;13.83;;;;;;;31.88;47.67;98966.50;5011362;28;20202;-60
2023/07/31 08:30:39;;;;;;;14.20;13.10;;;;;;;31.29;49.16;98958.00;5010893;28;20194;-61
2023/07/31 08:33:07;;;;;;;16.53;13.60;;;;;;;31.40;49.78;98956.38;5009693;28;20293;-64
2023/07/31 08:35:34;;;;;;;14.77;13.53;;;;;;;31.68;48.52;98965.50;5011261;28;20194;-60
2023/07/31 08:38:01;;;;;;;13.53;12.20;;;;;;;31.90;48.08;98967.78;5011344;28;20244;-63
2023/07/31 08:40:28;;;;;;;14.70;11.87;;;;;;;32.05;46.22;98964.25;5009565;28;20198;-65
2023/07/31 08:43:01;;;;;;;19.20;11.30;;;;;;;32.28;45.48;98976.31;5009944;28;20194;-63
2023/07/31 08:45:29;;;;;;;12.43;11.43;;;;;;;32.39;44.70;98974.69;5010928;28;20205;-63
2023/07/31 08:47:57;;;;;;;12.77;11.73;;;;;;;32.67;44.33;98964.44;5010086;28;20669;-66
2023/07/31 08:50:25;;;;;;;20.63;11.50;;;;;;;32.56;44.68;98963.38;5010478;28;20221;-61
2023/07/31 08:52:53;;;;;;;11.60;10.70;;;;;;;32.90;43.94;98979.22;5011077;28;20727;-61
2023/07/31 08:55:23;;;;;;;11.18;10.32;;;;;;;33.15;42.44;98980.63;5008711;28;20195;-61
2023/07/31 08:57:52;;;;;;;30.43;11.53;;;;;;;32.89;43.69;98983.13;5011568;28;20252;-63
2023/07/31 09:00:20;;;;;;;10.85;10.15;;;;;;;32.65;43.71;98964.00;5009911;28;20198;-65
2023/07/31 09:02:53;;;;;;;14.05;11.43;;;;;;;33.28;42.86;98971.09;5010363;28;20657;-61
2023/07/31 09:05:20;;;;;;;10.73;10.07;;;;;;;33.62;41.09;98971.50;5010709;28;20252;-65
2023/07/31 09:07:50;;;;;;;9.63;9.02;;;;;;;34.01;39.06;98984.22;5010273;28;20576;-62
2023/07/31 09:10:17;;;;;;;9.45;8.75;;;;;;;34.41;38.10;98973.63;5010817;28;20333;-60
2023/07/31 09:12:45;;;;;;;11.90;11.20;;;;;;;34.58;37.86;98973.94;5009087;28;20273;-60
2023/07/31 09:15:12;;;;;;;16.58;10.10;;;;;;;34.90;37.12;98977.31;5011467;28;20577;-59
2023/07/31 09:17:39;;;;;;;11.75;10.60;;;;;;;34.94;36.19;98976.19;5011321;28;20217;-62
2023/07/31 09:20:14;;;;;;;10.50;9.52;;;;;;;34.80;36.34;98973.22;5011540;28;20736;-61
2023/07/31 09:22:41;;;;;;;10.27;9.57;;;;;;;34.98;36.73;98970.75;5011501;28;20221;-60
2023/07/31 09:25:20;;;;;;;10.65;9.75;;;;;;;35.44;35.40;98958.50;5012154;28;20230;-59
2023/07/31 09:27:51;;;;;;;13.30;12.10;;;;;;;35.52;35.32;98957.41;5012259;28;20197;-60
2023/07/31 09:30:19;;;;;;;20.60;11.38;;;;;;;35.28;35.91;98958.63;5011834;28;20249;-60
2023/07/31 09:32:46;;;;;;;13.85;12.40;;;;;;;35.14;35.92;98963.09;5010782;28;20191;-61
2023/07/31 09:35:24;;;;;;;11.90;11.15;;;;;;;34.24;37.19;98947.25;5009898;28;20260;-60
2023/07/31 09:37:52;;;;;;;13.57;12.10;;;;;;;34.18;37.43;98942.41;5011254;28;20194;-60
2023/07/31 09:40:30;;;;;;;10.88;10.00;;;;;;;34.12;37.24;98949.41;5010779;28;20222;-60
2023/07/31 09:42:58;;;;;;;12.13;10.70;;;;;;;34.56;36.36;98942.38;5010816;28;20201;-61
2023/07/31 09:45:25;;;;;;;11.55;10.55;;;;;;;34.64;36.31;98935.81;5010859;28;20194;-61
2023/07/31 09:47:52;;;;;;;11.25;10.45;;;;;;;35.12;35.22;98937.84;5010230;28;20198;-60
2023/07/31 09:50:22;;;;;;;10.98;10.18;;;;;;;35.14;35.75;98944.56;5011112;28;20197;-61
2023/07/31 09:52:49;;;;;;;11.80;10.55;;;;;;;34.96;35.72;98942.69;5012296;28;20194;-60
2023/07/31 09:55:16;;;;;;;10.73;9.82;;;;;;;35.08;34.95;98939.75;5011403;28;20194;-61
2023/07/31 09:57:46;;;;;;;12.18;10.50;;;;;;;35.19;34.93;98940.72;5015544;28;20198;-60
2023/07/31 10:00:14;;;;;;;9.40;8.80;;;;;;;35.42;34.10;98933.19;5014025;28;20288;-62
2023/07/31 10:02:42;;;;;;;9.95;9.40;;;;;;;35.42;34.10;98930.41;5014280;28;20721;-61
2023/07/31 10:05:09;;;;;;;24.10;10.02;;;;;;;35.02;35.19;98935.72;5014683;28;20201;-59
2023/07/31 10:07:40;;;;;;;10.60;9.10;;;;;;;34.54;36.18;98926.16;5014455;28;20723;-60
2023/07/31 10:10:09;;;;;;;10.73;9.68;;;;;;;33.97;37.09;98922.69;5014138;28;20248;-60
2023/07/31 10:12:37;;;;;;;9.60;9.10;;;;;;;34.00;37.49;98902.69;5014140;28;20244;-59
2023/07/31 10:15:07;;;;;;;9.63;8.77;;;;;;;34.51;36.97;98915.09;5014679;28;20197;-59
2023/07/31 10:17:35;;;;;;;9.68;8.82;;;;;;;34.70;37.00;98917.78;5015056;28;20273;-59
2023/07/31 10:20:04;;;;;;;8.25;7.70;;;;;;;34.62;35.84;98907.78;5014863;28;20304;-60
2023/07/31 10:22:32;;;;;;;9.65;8.18;;;;;;;34.45;36.35;98905.53;5014833;28;20198;-59
2023/07/31 10:25:00;;;;;;;10.48;9.30;;;;;;;34.43;35.94;98918.88;5013317;28;20729;-60
2023/07/31 10:27:27;;;;;;;9.30;8.60;;;;;;;34.25;36.45;98907.47;5014916;28;20190;-59
2023/07/31 10:29:56;;;;;;;11.00;8.60;;;;;;;34.42;35.90;98898.75;5014592;28;20669;-59
2023/07/31 10:32:25;;;;;;;8.63;7.88;;;;;;;34.72;36.21;98898.88;5013422;28;20711;-60
2023/07/31 10:34:52;;;;;;;10.43;8.52;;;;;;;34.73;35.63;98897.72;5014359;28;20624;-59
2023/07/31 10:37:24;;;;;;;8.70;8.30;;;;;;;34.80;35.46;98895.09;5013893;28;20229;-59
2023/07/31 10:39:59;;;;;;;9.63;8.48;;;;;;;35.09;34.62;98884.16;5014050;28;20218;-60
2023/07/31 10:42:30;;;;;;;9.40;8.52;;;;;;;35.16;34.87;98877.94;5013357;28;20259;-61
2023/07/31 10:44:59;;;;;;;8.65;8.15;;;;;;;34.97;34.87;98880.78;5014078;28;20233;-59
2023/07/31 10:47:27;;;;;;;9.57;8.98;;;;;;;35.12;35.40;98875.13;5013466;28;20198;-59
2023/07/31 10:49:53;;;;;;;9.20;8.50;;;;;;;35.18;35.55;98870.84;5012541;28;20669;-62
2023/07/31 10:52:23;;;;;;;8.38;7.88;;;;;;;35.43;34.94;98862.97;5012830;28;20686;-61
2023/07/31 10:54:50;;;;;;;9.25;8.52;;;;;;;35.45;34.56;98860.59;5012237;28;20343;-63
2023/07/31 10:57:21;;;;;;;9.50;7.72;;;;;;;35.57;34.14;98857.59;5014148;28;20205;-60
2023/07/31 10:59:49;;;;;;;7.20;6.63;;;;;;;35.35;33.17;98853.75;5013913;28;20316;-58
2023/07/31 11:02:30;;;;;;;7.68;7.07;;;;;;;35.32;33.33;98851.72;5013916;28;20273;-59
2023/07/31 11:05:10;;;;;;;10.23;7.25;;;;;;;35.00;34.46;98860.72;5012384;28;20670;-61
2023/07/31 11:07:49;;;;;;;14.90;7.88;;;;;;;35.07;34.32;98856.09;5013514;28;20248;-59
2023/07/31 11:10:19;;;;;;;7.28;6.57;;;;;;;35.37;33.76;98848.66;5014019;28;20194;-59
2023/07/31 11:12:47;;;;;;;6.40;6.13;;;;;;;35.52;32.85;98849.66;5013339;28;20202;-60
2023/07/31 11:15:14;;;;;;;6.20;5.90;;;;;;;35.29;32.31;98835.94;5012373;28;20276;-61
2023/07/31 11:17:42;;;;;;;6.47;5.97;;;;;;;35.53;32.22;98848.47;5013976;28;20197;-61
2023/07/31 11:20:09;;;;;;;6.07;5.78;;;;;;;35.38;32.46;98860.50;5013468;28;20317;-60
2023/07/31 11:22:36;;;;;;;11.07;6.63;;;;;;;35.02;35.79;98870.22;5013680;28;20182;-60
2023/07/31 11:25:04;;;;;;;6.85;6.32;;;;;;;34.59;37.30;98862.41;5012968;28;20234;-60
2023/07/31 11:27:31;;;;;;;6.30;5.90;;;;;;;33.93;38.47;98852.91;5011579;28;20190;-64
2023/07/31 11:30:01;;;;;;;7.05;6.00;;;;;;;33.92;38.86;98848.56;5013211;28;20206;-59
2023/07/31 11:32:28;;;;;;;7.32;6.72;;;;;;;33.07;41.38;98843.97;5013184;28;20638;-60